sensor_id;sensor_type;location;lat;lon;timestamp;P1;durP1;ratioP1;P2;durP2;ratioP2
37203;SDS011;23098;48.054;10.636;2024-01-27T00:02:19;5.53;;;2.45;;
37203;SDS011;23098;48.054;10.636;2024-01-27T00:04:45;3.67;;;2.35;;
37203;SDS011;23098;48.054;10.636;2024-01-27T00:07:10;4.68;;;2.47;;
37203;SDS011;23098;48.054;10.636;2024-01-27T00:09:36;7.35;;;2.60;;
37203;SDS011;23098;48.054;10.636;2024-01-27T00:12:03;6.05;;;2.58;;
37203;SDS011;23098;48.054;10.636;2024-01-27T00:14:29;4.00;;;2.35;;
37203;SDS011;23098;48.054;10.636;2024-01-27T00:16:54;4.40;;;2.30;;
37203;SDS011;23098;48.054;10.636;2024-01-27T00:19:20;4.97;;;2.25;;
37203;SDS011;23098;48.054;10.636;2024-01-27T00:21:45;3.25;;;1.92;;
37203;SDS011;23098;48.054;10.636;2024-01-27T00:24:11;3.40;;;2.03;;
37203;SDS011;23098;48.054;10.636;2024-01-27T00:26:38;3.45;;;2.15;;
37203;SDS011;23098;48.054;10.636;2024-01-27T00:29:03;7.70;;;2.30;;
37203;SDS011;23098;48.054;10.636;2024-01-27T00:31:29;3.00;;;2.15;;
37203;SDS011;23098;48.054;10.636;2024-01-27T00:33:54;4.78;;;2.38;;
37203;SDS011;23098;48.054;10.636;2024-01-27T00:36:20;7.38;;;2.53;;
37203;SDS011;23098;48.054;10.636;2024-01-27T00:38:45;6.43;;;2.60;;
37203;SDS011;23098;48.054;10.636;2024-01-27T00:41:17;4.38;;;2.08;;
37203;SDS011;23098;48.054;10.636;2024-01-27T00:43:43;8.52;;;2.63;;
37203;SDS011;23098;48.054;10.636;2024-01-27T00:46:09;5.15;;;2.28;;
37203;SDS011;23098;48.054;10.636;2024-01-27T00:48:34;3.80;;;2.45;;
37203;SDS011;23098;48.054;10.636;2024-01-27T00:51:00;8.10;;;2.30;;
37203;SDS011;23098;48.054;10.636;2024-01-27T00:53:25;3.53;;;2.78;;
37203;SDS011;23098;48.054;10.636;2024-01-27T00:55:51;4.57;;;3.05;;
37203;SDS011;23098;48.054;10.636;2024-01-27T00:58:16;6.80;;;3.28;;
37203;SDS011;23098;48.054;10.636;2024-01-27T01:00:42;4.93;;;2.67;;
37203;SDS011;23098;48.054;10.636;2024-01-27T01:03:07;9.30;;;3.30;;
37203;SDS011;23098;48.054;10.636;2024-01-27T01:05:33;8.13;;;3.03;;
37203;SDS011;23098;48.054;10.636;2024-01-27T01:07:58;6.50;;;2.95;;
37203;SDS011;23098;48.054;10.636;2024-01-27T01:10:24;6.85;;;2.50;;
37203;SDS011;23098;48.054;10.636;2024-01-27T01:12:49;6.47;;;2.30;;
37203;SDS011;23098;48.054;10.636;2024-01-27T01:15:15;5.07;;;2.63;;
37203;SDS011;23098;48.054;10.636;2024-01-27T01:17:41;5.32;;;2.58;;
37203;SDS011;23098;48.054;10.636;2024-01-27T01:20:06;8.52;;;2.95;;
37203;SDS011;23098;48.054;10.636;2024-01-27T01:22:32;12.45;;;4.43;;
37203;SDS011;23098;48.054;10.636;2024-01-27T01:24:58;8.85;;;3.58;;
37203;SDS011;23098;48.054;10.636;2024-01-27T01:27:23;7.95;;;3.83;;
37203;SDS011;23098;48.054;10.636;2024-01-27T01:29:49;10.68;;;4.22;;
37203;SDS011;23098;48.054;10.636;2024-01-27T01:32:14;10.70;;;4.35;;
37203;SDS011;23098;48.054;10.636;2024-01-27T01:34:40;9.77;;;3.90;;
37203;SDS011;23098;48.054;10.636;2024-01-27T01:37:06;9.18;;;3.20;;
37203;SDS011;23098;48.054;10.636;2024-01-27T01:39:31;7.80;;;2.95;;
37203;SDS011;23098;48.054;10.636;2024-01-27T01:41:57;7.93;;;2.65;;
37203;SDS011;23098;48.054;10.636;2024-01-27T01:44:23;8.90;;;2.50;;
37203;SDS011;23098;48.054;10.636;2024-01-27T01:49:19;5.75;;;2.25;;
37203;SDS011;23098;48.054;10.636;2024-01-27T01:51:45;5.13;;;2.10;;
37203;SDS011;23098;48.054;10.636;2024-01-27T01:54:10;6.57;;;2.60;;
37203;SDS011;23098;48.054;10.636;2024-01-27T01:56:37;6.03;;;2.60;;
37203;SDS011;23098;48.054;10.636;2024-01-27T01:59:02;4.63;;;2.50;;
37203;SDS011;23098;48.054;10.636;2024-01-27T02:01:28;4.13;;;2.40;;
37203;SDS011;23098;48.054;10.636;2024-01-27T02:03:54;6.68;;;2.40;;
37203;SDS011;23098;48.054;10.636;2024-01-27T02:06:20;4.72;;;2.33;;
37203;SDS011;23098;48.054;10.636;2024-01-27T02:08:46;5.00;;;2.35;;
37203;SDS011;23098;48.054;10.636;2024-01-27T02:11:11;7.55;;;2.30;;
37203;SDS011;23098;48.054;10.636;2024-01-27T02:13:37;9.25;;;2.60;;
37203;SDS011;23098;48.054;10.636;2024-01-27T02:16:02;3.42;;;2.55;;
37203;SDS011;23098;48.054;10.636;2024-01-27T02:18:28;6.63;;;2.60;;
37203;SDS011;23098;48.054;10.636;2024-01-27T02:20:54;5.75;;;2.28;;
37203;SDS011;23098;48.054;10.636;2024-01-27T02:23:19;5.80;;;2.38;;
37203;SDS011;23098;48.054;10.636;2024-01-27T02:25:45;4.82;;;2.50;;
37203;SDS011;23098;48.054;10.636;2024-01-27T02:28:11;5.15;;;2.47;;
37203;SDS011;23098;48.054;10.636;2024-01-27T02:30:38;5.90;;;2.50;;
37203;SDS011;23098;48.054;10.636;2024-01-27T02:33:03;4.65;;;2.33;;
37203;SDS011;23098;48.054;10.636;2024-01-27T02:35:29;6.07;;;2.35;;
37203;SDS011;23098;48.054;10.636;2024-01-27T02:37:55;8.23;;;2.45;;
37203;SDS011;23098;48.054;10.636;2024-01-27T02:40:21;9.77;;;2.85;;
37203;SDS011;23098;48.054;10.636;2024-01-27T02:42:46;7.50;;;2.42;;
37203;SDS011;23098;48.054;10.636;2024-01-27T02:45:12;7.32;;;2.60;;
37203;SDS011;23098;48.054;10.636;2024-01-27T02:47:37;4.38;;;2.53;;
37203;SDS011;23098;48.054;10.636;2024-01-27T02:50:03;4.25;;;2.70;;
37203;SDS011;23098;48.054;10.636;2024-01-27T02:52:31;6.32;;;2.55;;
37203;SDS011;23098;48.054;10.636;2024-01-27T02:54:57;4.53;;;2.33;;
37203;SDS011;23098;48.054;10.636;2024-01-27T02:57:22;3.28;;;2.40;;
37203;SDS011;23098;48.054;10.636;2024-01-27T02:59:48;4.93;;;2.42;;
37203;SDS011;23098;48.054;10.636;2024-01-27T03:02:14;4.95;;;2.45;;
37203;SDS011;23098;48.054;10.636;2024-01-27T03:04:41;6.65;;;2.53;;
37203;SDS011;23098;48.054;10.636;2024-01-27T03:07:07;6.75;;;2.72;;
37203;SDS011;23098;48.054;10.636;2024-01-27T03:09:32;7.85;;;2.92;;
37203;SDS011;23098;48.054;10.636;2024-01-27T03:11:59;4.75;;;2.80;;
37203;SDS011;23098;48.054;10.636;2024-01-27T03:14:25;6.95;;;3.00;;
37203;SDS011;23098;48.054;10.636;2024-01-27T03:16:51;8.95;;;3.25;;
37203;SDS011;23098;48.054;10.636;2024-01-27T03:19:17;4.40;;;2.85;;
37203;SDS011;23098;48.054;10.636;2024-01-27T03:21:42;6.07;;;2.97;;
37203;SDS011;23098;48.054;10.636;2024-01-27T03:24:08;7.28;;;2.97;;
37203;SDS011;23098;48.054;10.636;2024-01-27T03:26:33;8.38;;;3.30;;
37203;SDS011;23098;48.054;10.636;2024-01-27T03:28:59;6.75;;;3.08;;
37203;SDS011;23098;48.054;10.636;2024-01-27T03:31:31;8.75;;;3.35;;
37203;SDS011;23098;48.054;10.636;2024-01-27T03:34:00;9.55;;;3.20;;
37203;SDS011;23098;48.054;10.636;2024-01-27T03:36:28;9.57;;;3.28;;
37203;SDS011;23098;48.054;10.636;2024-01-27T03:38:55;5.07;;;3.10;;
37203;SDS011;23098;48.054;10.636;2024-01-27T03:41:22;4.60;;;3.20;;
37203;SDS011;23098;48.054;10.636;2024-01-27T03:43:48;6.97;;;3.50;;
37203;SDS011;23098;48.054;10.636;2024-01-27T03:46:13;6.07;;;2.92;;
37203;SDS011;23098;48.054;10.636;2024-01-27T03:48:39;12.63;;;3.72;;
37203;SDS011;23098;48.054;10.636;2024-01-27T03:51:04;9.10;;;3.17;;
37203;SDS011;23098;48.054;10.636;2024-01-27T03:53:30;7.95;;;3.40;;
37203;SDS011;23098;48.054;10.636;2024-01-27T03:55:56;7.68;;;3.30;;
37203;SDS011;23098;48.054;10.636;2024-01-27T03:58:28;8.15;;;2.67;;
37203;SDS011;23098;48.054;10.636;2024-01-27T04:00:54;5.95;;;3.42;;
37203;SDS011;23098;48.054;10.636;2024-01-27T04:03:19;15.68;;;4.00;;
37203;SDS011;23098;48.054;10.636;2024-01-27T04:05:45;8.70;;;3.30;;
37203;SDS011;23098;48.054;10.636;2024-01-27T04:08:10;7.35;;;3.58;;
37203;SDS011;23098;48.054;10.636;2024-01-27T04:10:36;7.05;;;3.20;;
37203;SDS011;23098;48.054;10.636;2024-01-27T04:13:03;7.07;;;3.42;;
37203;SDS011;23098;48.054;10.636;2024-01-27T04:15:29;6.18;;;3.08;;
37203;SDS011;23098;48.054;10.636;2024-01-27T04:17:55;5.38;;;3.33;;
37203;SDS011;23098;48.054;10.636;2024-01-27T04:20:22;11.77;;;3.60;;
37203;SDS011;23098;48.054;10.636;2024-01-27T04:22:47;6.15;;;3.20;;
37203;SDS011;23098;48.054;10.636;2024-01-27T04:25:13;8.77;;;3.60;;
37203;SDS011;23098;48.054;10.636;2024-01-27T04:27:38;6.63;;;3.67;;
37203;SDS011;23098;48.054;10.636;2024-01-27T04:30:08;6.55;;;3.22;;
37203;SDS011;23098;48.054;10.636;2024-01-27T04:32:35;6.07;;;3.67;;
37203;SDS011;23098;48.054;10.636;2024-01-27T04:35:01;10.00;;;4.00;;
37203;SDS011;23098;48.054;10.636;2024-01-27T04:37:28;6.72;;;3.13;;
37203;SDS011;23098;48.054;10.636;2024-01-27T04:39:53;5.70;;;3.40;;
37203;SDS011;23098;48.054;10.636;2024-01-27T04:42:19;5.30;;;3.22;;
37203;SDS011;23098;48.054;10.636;2024-01-27T04:44:45;8.52;;;3.30;;
37203;SDS011;23098;48.054;10.636;2024-01-27T04:47:11;8.48;;;3.45;;
37203;SDS011;23098;48.054;10.636;2024-01-27T04:49:36;8.25;;;3.17;;
37203;SDS011;23098;48.054;10.636;2024-01-27T04:52:02;6.80;;;3.08;;
37203;SDS011;23098;48.054;10.636;2024-01-27T04:54:29;5.85;;;3.42;;
37203;SDS011;23098;48.054;10.636;2024-01-27T04:56:55;6.82;;;3.53;;
37203;SDS011;23098;48.054;10.636;2024-01-27T04:59:20;4.63;;;3.42;;
37203;SDS011;23098;48.054;10.636;2024-01-27T05:01:46;7.25;;;3.58;;
37203;SDS011;23098;48.054;10.636;2024-01-27T05:04:12;6.38;;;3.28;;
37203;SDS011;23098;48.054;10.636;2024-01-27T05:06:37;8.82;;;3.35;;
37203;SDS011;23098;48.054;10.636;2024-01-27T05:09:04;8.25;;;3.03;;
37203;SDS011;23098;48.054;10.636;2024-01-27T05:11:31;8.40;;;3.95;;
37203;SDS011;23098;48.054;10.636;2024-01-27T05:14:00;5.47;;;3.45;;
37203;SDS011;23098;48.054;10.636;2024-01-27T05:16:26;8.77;;;3.70;;
37203;SDS011;23098;48.054;10.636;2024-01-27T05:18:52;6.32;;;3.45;;
37203;SDS011;23098;48.054;10.636;2024-01-27T05:21:18;8.60;;;3.92;;
37203;SDS011;23098;48.054;10.636;2024-01-27T05:23:43;9.25;;;3.45;;
37203;SDS011;23098;48.054;10.636;2024-01-27T05:26:09;8.07;;;3.35;;
37203;SDS011;23098;48.054;10.636;2024-01-27T05:28:36;10.55;;;3.30;;
37203;SDS011;23098;48.054;10.636;2024-01-27T05:31:02;7.72;;;3.50;;
37203;SDS011;23098;48.054;10.636;2024-01-27T05:33:28;18.27;;;10.57;;
37203;SDS011;23098;48.054;10.636;2024-01-27T05:35:54;18.92;;;7.82;;
37203;SDS011;23098;48.054;10.636;2024-01-27T05:38:19;13.68;;;5.72;;
37203;SDS011;23098;48.054;10.636;2024-01-27T05:40:45;10.05;;;6.72;;
37203;SDS011;23098;48.054;10.636;2024-01-27T05:43:10;18.08;;;9.68;;
37203;SDS011;23098;48.054;10.636;2024-01-27T05:45:36;16.88;;;9.20;;
37203;SDS011;23098;48.054;10.636;2024-01-27T05:48:02;13.30;;;7.75;;
37203;SDS011;23098;48.054;10.636;2024-01-27T05:50:27;13.10;;;7.97;;
37203;SDS011;23098;48.054;10.636;2024-01-27T05:52:55;13.45;;;6.20;;
37203;SDS011;23098;48.054;10.636;2024-01-27T05:55:21;9.55;;;5.95;;
37203;SDS011;23098;48.054;10.636;2024-01-27T05:57:46;9.70;;;5.85;;
37203;SDS011;23098;48.054;10.636;2024-01-27T06:00:12;10.32;;;5.05;;
37203;SDS011;23098;48.054;10.636;2024-01-27T06:02:38;12.55;;;5.20;;
37203;SDS011;23098;48.054;10.636;2024-01-27T06:05:04;8.02;;;4.38;;
37203;SDS011;23098;48.054;10.636;2024-01-27T06:07:29;9.57;;;4.40;;
37203;SDS011;23098;48.054;10.636;2024-01-27T06:09:55;9.65;;;4.30;;
37203;SDS011;23098;48.054;10.636;2024-01-27T06:12:21;10.88;;;4.30;;
37203;SDS011;23098;48.054;10.636;2024-01-27T06:14:46;8.27;;;4.07;;
37203;SDS011;23098;48.054;10.636;2024-01-27T06:17:12;6.75;;;3.72;;
37203;SDS011;23098;48.054;10.636;2024-01-27T06:19:40;11.00;;;4.10;;
37203;SDS011;23098;48.054;10.636;2024-01-27T06:22:05;8.15;;;4.30;;
37203;SDS011;23098;48.054;10.636;2024-01-27T06:24:31;15.27;;;5.13;;
37203;SDS011;23098;48.054;10.636;2024-01-27T06:26:56;5.38;;;3.50;;
37203;SDS011;23098;48.054;10.636;2024-01-27T06:29:22;10.32;;;4.18;;
37203;SDS011;23098;48.054;10.636;2024-01-27T06:31:48;9.85;;;4.40;;
37203;SDS011;23098;48.054;10.636;2024-01-27T06:34:13;11.60;;;5.30;;
37203;SDS011;23098;48.054;10.636;2024-01-27T06:36:39;9.60;;;5.15;;
37203;SDS011;23098;48.054;10.636;2024-01-27T06:39:04;9.82;;;4.93;;
37203;SDS011;23098;48.054;10.636;2024-01-27T06:41:30;13.02;;;4.70;;
37203;SDS011;23098;48.054;10.636;2024-01-27T06:43:55;8.57;;;4.55;;
37203;SDS011;23098;48.054;10.636;2024-01-27T06:46:21;9.93;;;4.22;;
37203;SDS011;23098;48.054;10.636;2024-01-27T06:48:46;12.43;;;4.50;;
37203;SDS011;23098;48.054;10.636;2024-01-27T06:51:12;6.70;;;3.92;;
37203;SDS011;23098;48.054;10.636;2024-01-27T06:53:38;7.75;;;4.05;;
37203;SDS011;23098;48.054;10.636;2024-01-27T06:56:03;9.85;;;4.60;;
37203;SDS011;23098;48.054;10.636;2024-01-27T06:58:29;16.33;;;5.82;;
37203;SDS011;23098;48.054;10.636;2024-01-27T07:00:54;11.55;;;5.35;;
37203;SDS011;23098;48.054;10.636;2024-01-27T07:03:20;10.73;;;5.13;;
37203;SDS011;23098;48.054;10.636;2024-01-27T07:05:45;9.13;;;4.80;;
37203;SDS011;23098;48.054;10.636;2024-01-27T07:08:11;10.05;;;4.72;;
37203;SDS011;23098;48.054;10.636;2024-01-27T07:10:36;11.07;;;5.38;;
37203;SDS011;23098;48.054;10.636;2024-01-27T07:13:02;10.57;;;5.90;;
37203;SDS011;23098;48.054;10.636;2024-01-27T07:15:28;8.90;;;5.30;;
37203;SDS011;23098;48.054;10.636;2024-01-27T07:17:53;13.35;;;6.80;;
37203;SDS011;23098;48.054;10.636;2024-01-27T07:20:19;15.15;;;7.57;;
37203;SDS011;23098;48.054;10.636;2024-01-27T07:22:46;12.80;;;7.47;;
37203;SDS011;23098;48.054;10.636;2024-01-27T07:25:12;15.65;;;7.18;;
37203;SDS011;23098;48.054;10.636;2024-01-27T07:27:38;19.70;;;7.28;;
37203;SDS011;23098;48.054;10.636;2024-01-27T07:30:04;14.68;;;7.03;;
37203;SDS011;23098;48.054;10.636;2024-01-27T07:32:31;13.63;;;6.10;;
37203;SDS011;23098;48.054;10.636;2024-01-27T07:34:56;11.40;;;6.50;;
37203;SDS011;23098;48.054;10.636;2024-01-27T07:37:22;11.18;;;6.32;;
37203;SDS011;23098;48.054;10.636;2024-01-27T07:39:48;12.32;;;6.40;;
37203;SDS011;23098;48.054;10.636;2024-01-27T07:42:14;11.77;;;6.35;;
37203;SDS011;23098;48.054;10.636;2024-01-27T07:44:40;15.05;;;7.05;;
37203;SDS011;23098;48.054;10.636;2024-01-27T07:47:06;14.52;;;7.57;;
37203;SDS011;23098;48.054;10.636;2024-01-27T07:49:33;21.25;;;7.47;;
37203;SDS011;23098;48.054;10.636;2024-01-27T07:51:59;15.68;;;8.38;;
37203;SDS011;23098;48.054;10.636;2024-01-27T07:54:24;13.77;;;7.80;;
37203;SDS011;23098;48.054;10.636;2024-01-27T07:56:50;21.15;;;9.20;;
37203;SDS011;23098;48.054;10.636;2024-01-27T07:59:16;15.88;;;8.52;;
37203;SDS011;23098;48.054;10.636;2024-01-27T08:01:41;17.70;;;8.82;;
37203;SDS011;23098;48.054;10.636;2024-01-27T08:04:07;13.38;;;7.55;;
37203;SDS011;23098;48.054;10.636;2024-01-27T08:06:33;17.77;;;8.57;;
37203;SDS011;23098;48.054;10.636;2024-01-27T08:08:58;15.82;;;8.57;;
37203;SDS011;23098;48.054;10.636;2024-01-27T08:11:24;15.98;;;9.07;;
37203;SDS011;23098;48.054;10.636;2024-01-27T08:13:50;17.10;;;8.95;;
37203;SDS011;23098;48.054;10.636;2024-01-27T08:16:17;15.10;;;7.60;;
37203;SDS011;23098;48.054;10.636;2024-01-27T08:18:42;10.02;;;6.38;;
37203;SDS011;23098;48.054;10.636;2024-01-27T08:21:09;15.32;;;6.40;;
37203;SDS011;23098;48.054;10.636;2024-01-27T08:23:35;14.85;;;5.90;;
37203;SDS011;23098;48.054;10.636;2024-01-27T08:26:01;10.73;;;6.50;;
37203;SDS011;23098;48.054;10.636;2024-01-27T08:28:26;14.15;;;6.13;;
37203;SDS011;23098;48.054;10.636;2024-01-27T08:30:52;11.32;;;6.28;;
37203;SDS011;23098;48.054;10.636;2024-01-27T08:33:18;10.27;;;4.90;;
37203;SDS011;23098;48.054;10.636;2024-01-27T08:35:46;10.30;;;4.93;;
37203;SDS011;23098;48.054;10.636;2024-01-27T08:38:12;11.52;;;5.35;;
37203;SDS011;23098;48.054;10.636;2024-01-27T08:40:38;10.52;;;5.40;;
37203;SDS011;23098;48.054;10.636;2024-01-27T08:43:04;10.48;;;5.88;;
37203;SDS011;23098;48.054;10.636;2024-01-27T08:45:30;10.98;;;5.95;;
37203;SDS011;23098;48.054;10.636;2024-01-27T08:47:56;7.88;;;5.22;;
37203;SDS011;23098;48.054;10.636;2024-01-27T08:50:22;10.35;;;5.55;;
37203;SDS011;23098;48.054;10.636;2024-01-27T08:52:48;15.05;;;5.28;;
37203;SDS011;23098;48.054;10.636;2024-01-27T08:55:13;10.23;;;5.07;;
37203;SDS011;23098;48.054;10.636;2024-01-27T08:57:41;9.35;;;4.70;;
37203;SDS011;23098;48.054;10.636;2024-01-27T09:00:07;7.05;;;3.85;;
37203;SDS011;23098;48.054;10.636;2024-01-27T09:02:34;10.00;;;4.55;;
37203;SDS011;23098;48.054;10.636;2024-01-27T09:05:00;11.05;;;4.97;;
37203;SDS011;23098;48.054;10.636;2024-01-27T09:07:25;11.30;;;5.18;;
37203;SDS011;23098;48.054;10.636;2024-01-27T09:09:51;9.65;;;4.53;;
37203;SDS011;23098;48.054;10.636;2024-01-27T09:12:16;10.57;;;4.25;;
37203;SDS011;23098;48.054;10.636;2024-01-27T09:14:42;10.90;;;4.03;;
37203;SDS011;23098;48.054;10.636;2024-01-27T09:17:07;8.85;;;3.63;;
37203;SDS011;23098;48.054;10.636;2024-01-27T09:19:33;6.60;;;3.53;;
37203;SDS011;23098;48.054;10.636;2024-01-27T09:21:59;11.05;;;4.35;;
37203;SDS011;23098;48.054;10.636;2024-01-27T09:24:24;7.03;;;3.65;;
37203;SDS011;23098;48.054;10.636;2024-01-27T09:26:50;8.05;;;3.60;;
37203;SDS011;23098;48.054;10.636;2024-01-27T09:29:16;7.20;;;3.20;;
37203;SDS011;23098;48.054;10.636;2024-01-27T09:31:42;7.90;;;3.50;;
37203;SDS011;23098;48.054;10.636;2024-01-27T09:34:08;8.27;;;3.20;;
37203;SDS011;23098;48.054;10.636;2024-01-27T09:36:33;5.03;;;2.75;;
37203;SDS011;23098;48.054;10.636;2024-01-27T09:38:59;11.07;;;2.97;;
37203;SDS011;23098;48.054;10.636;2024-01-27T09:41:25;10.40;;;3.10;;
37203;SDS011;23098;48.054;10.636;2024-01-27T09:43:57;6.22;;;2.72;;
37203;SDS011;23098;48.054;10.636;2024-01-27T09:46:28;9.00;;;3.03;;
37203;SDS011;23098;48.054;10.636;2024-01-27T09:48:55;7.55;;;3.17;;
37203;SDS011;23098;48.054;10.636;2024-01-27T09:51:21;8.93;;;3.47;;
37203;SDS011;23098;48.054;10.636;2024-01-27T09:53:47;5.63;;;3.33;;
37203;SDS011;23098;48.054;10.636;2024-01-27T09:56:15;9.27;;;3.58;;
37203;SDS011;23098;48.054;10.636;2024-01-27T09:58:43;9.40;;;4.07;;
37203;SDS011;23098;48.054;10.636;2024-01-27T10:01:13;10.60;;;3.80;;
37203;SDS011;23098;48.054;10.636;2024-01-27T10:03:42;7.72;;;3.15;;
37203;SDS011;23098;48.054;10.636;2024-01-27T10:06:08;15.15;;;5.22;;
37203;SDS011;23098;48.054;10.636;2024-01-27T10:08:34;9.80;;;3.83;;
37203;SDS011;23098;48.054;10.636;2024-01-27T10:11:04;9.95;;;3.80;;
37203;SDS011;23098;48.054;10.636;2024-01-27T10:13:32;10.85;;;4.00;;
37203;SDS011;23098;48.054;10.636;2024-01-27T10:18:31;8.13;;;3.78;;
37203;SDS011;23098;48.054;10.636;2024-01-27T10:20:58;8.32;;;3.90;;
37203;SDS011;23098;48.054;10.636;2024-01-27T10:23:23;10.68;;;4.82;;
37203;SDS011;23098;48.054;10.636;2024-01-27T10:25:49;11.82;;;4.05;;
37203;SDS011;23098;48.054;10.636;2024-01-27T10:28:16;8.38;;;4.28;;
37203;SDS011;23098;48.054;10.636;2024-01-27T10:30:42;10.82;;;4.13;;
37203;SDS011;23098;48.054;10.636;2024-01-27T10:33:13;7.45;;;3.38;;
37203;SDS011;23098;48.054;10.636;2024-01-27T10:35:39;6.70;;;4.10;;
37203;SDS011;23098;48.054;10.636;2024-01-27T10:38:05;6.60;;;3.42;;
37203;SDS011;23098;48.054;10.636;2024-01-27T10:40:31;8.65;;;3.47;;
37203;SDS011;23098;48.054;10.636;2024-01-27T10:45:34;7.25;;;3.72;;
37203;SDS011;23098;48.054;10.636;2024-01-27T10:48:02;9.40;;;3.38;;
37203;SDS011;23098;48.054;10.636;2024-01-27T10:50:29;6.65;;;3.15;;
37203;SDS011;23098;48.054;10.636;2024-01-27T10:52:57;8.30;;;3.50;;
37203;SDS011;23098;48.054;10.636;2024-01-27T10:55:24;7.55;;;3.38;;
37203;SDS011;23098;48.054;10.636;2024-01-27T10:57:50;8.48;;;3.38;;
37203;SDS011;23098;48.054;10.636;2024-01-27T11:00:19;10.18;;;3.35;;
37203;SDS011;23098;48.054;10.636;2024-01-27T11:02:44;9.98;;;3.85;;
37203;SDS011;23098;48.054;10.636;2024-01-27T11:05:11;7.60;;;3.22;;
37203;SDS011;23098;48.054;10.636;2024-01-27T11:07:40;7.68;;;3.63;;
37203;SDS011;23098;48.054;10.636;2024-01-27T11:10:07;6.80;;;3.47;;
37203;SDS011;23098;48.054;10.636;2024-01-27T11:12:33;9.10;;;3.63;;
37203;SDS011;23098;48.054;10.636;2024-01-27T11:14:59;10.02;;;4.07;;
37203;SDS011;23098;48.054;10.636;2024-01-27T11:17:25;12.00;;;4.10;;
37203;SDS011;23098;48.054;10.636;2024-01-27T11:19:50;9.25;;;3.88;;
37203;SDS011;23098;48.054;10.636;2024-01-27T11:22:28;8.02;;;3.42;;
37203;SDS011;23098;48.054;10.636;2024-01-27T11:25:09;9.48;;;3.20;;
37203;SDS011;23098;48.054;10.636;2024-01-27T11:27:44;5.35;;;3.13;;
37203;SDS011;23098;48.054;10.636;2024-01-27T11:32:57;5.70;;;3.72;;
37203;SDS011;23098;48.054;10.636;2024-01-27T11:35:26;8.48;;;3.58;;
37203;SDS011;23098;48.054;10.636;2024-01-27T11:37:51;10.45;;;3.60;;
37203;SDS011;23098;48.054;10.636;2024-01-27T11:40:17;9.40;;;3.72;;
37203;SDS011;23098;48.054;10.636;2024-01-27T11:42:43;6.85;;;3.40;;
37203;SDS011;23098;48.054;10.636;2024-01-27T11:45:09;9.25;;;3.45;;
37203;SDS011;23098;48.054;10.636;2024-01-27T11:47:35;6.20;;;3.42;;
37203;SDS011;23098;48.054;10.636;2024-01-27T11:50:00;9.98;;;3.10;;
37203;SDS011;23098;48.054;10.636;2024-01-27T11:52:27;6.28;;;3.47;;
37203;SDS011;23098;48.054;10.636;2024-01-27T11:55:01;8.75;;;2.83;;
37203;SDS011;23098;48.054;10.636;2024-01-27T11:57:27;6.72;;;2.97;;
37203;SDS011;23098;48.054;10.636;2024-01-27T11:59:53;7.75;;;3.00;;
37203;SDS011;23098;48.054;10.636;2024-01-27T12:02:19;6.10;;;2.92;;
37203;SDS011;23098;48.054;10.636;2024-01-27T12:04:45;7.07;;;2.83;;
37203;SDS011;23098;48.054;10.636;2024-01-27T12:07:11;5.28;;;3.20;;
37203;SDS011;23098;48.054;10.636;2024-01-27T12:09:37;11.43;;;3.38;;
37203;SDS011;23098;48.054;10.636;2024-01-27T12:12:03;8.38;;;3.10;;
37203;SDS011;23098;48.054;10.636;2024-01-27T12:17:10;9.13;;;2.90;;
37203;SDS011;23098;48.054;10.636;2024-01-27T12:19:38;5.88;;;3.00;;
37203;SDS011;23098;48.054;10.636;2024-01-27T12:22:04;8.35;;;3.05;;
37203;SDS011;23098;48.054;10.636;2024-01-27T12:24:30;6.57;;;3.10;;
37203;SDS011;23098;48.054;10.636;2024-01-27T12:26:57;5.07;;;3.13;;
37203;SDS011;23098;48.054;10.636;2024-01-27T12:29:24;6.80;;;2.80;;
37203;SDS011;23098;48.054;10.636;2024-01-27T12:31:49;6.22;;;2.85;;
37203;SDS011;23098;48.054;10.636;2024-01-27T12:34:15;10.00;;;3.03;;
37203;SDS011;23098;48.054;10.636;2024-01-27T12:36:41;6.80;;;2.47;;
37203;SDS011;23098;48.054;10.636;2024-01-27T12:39:07;6.95;;;2.65;;
37203;SDS011;23098;48.054;10.636;2024-01-27T12:41:33;7.03;;;2.88;;
37203;SDS011;23098;48.054;10.636;2024-01-27T12:43:59;8.98;;;3.50;;
37203;SDS011;23098;48.054;10.636;2024-01-27T12:46:25;6.47;;;3.05;;
37203;SDS011;23098;48.054;10.636;2024-01-27T12:48:50;7.07;;;3.08;;
37203;SDS011;23098;48.054;10.636;2024-01-27T12:51:16;5.97;;;2.85;;
37203;SDS011;23098;48.054;10.636;2024-01-27T12:53:42;8.43;;;3.33;;
37203;SDS011;23098;48.054;10.636;2024-01-27T12:56:09;6.68;;;2.50;;
37203;SDS011;23098;48.054;10.636;2024-01-27T12:58:36;6.53;;;2.65;;
37203;SDS011;23098;48.054;10.636;2024-01-27T13:01:02;6.05;;;2.70;;
37203;SDS011;23098;48.054;10.636;2024-01-27T13:03:28;5.28;;;2.22;;
37203;SDS011;23098;48.054;10.636;2024-01-27T13:05:54;7.00;;;2.70;;
37203;SDS011;23098;48.054;10.636;2024-01-27T13:08:20;7.97;;;3.05;;
37203;SDS011;23098;48.054;10.636;2024-01-27T13:10:46;5.90;;;2.58;;
37203;SDS011;23098;48.054;10.636;2024-01-27T13:13:12;6.40;;;3.03;;
37203;SDS011;23098;48.054;10.636;2024-01-27T13:15:37;4.35;;;2.20;;
37203;SDS011;23098;48.054;10.636;2024-01-27T13:18:03;6.70;;;2.35;;
37203;SDS011;23098;48.054;10.636;2024-01-27T13:20:29;5.53;;;2.78;;
37203;SDS011;23098;48.054;10.636;2024-01-27T13:22:55;6.07;;;2.50;;
37203;SDS011;23098;48.054;10.636;2024-01-27T13:25:21;6.15;;;2.90;;
37203;SDS011;23098;48.054;10.636;2024-01-27T13:27:46;6.57;;;2.50;;
37203;SDS011;23098;48.054;10.636;2024-01-27T13:30:12;6.75;;;3.17;;
37203;SDS011;23098;48.054;10.636;2024-01-27T13:32:38;6.07;;;2.97;;
37203;SDS011;23098;48.054;10.636;2024-01-27T13:35:06;4.18;;;2.33;;
37203;SDS011;23098;48.054;10.636;2024-01-27T13:37:32;5.53;;;2.50;;
37203;SDS011;23098;48.054;10.636;2024-01-27T13:40:03;5.70;;;2.50;;
37203;SDS011;23098;48.054;10.636;2024-01-27T13:42:30;6.95;;;2.70;;
37203;SDS011;23098;48.054;10.636;2024-01-27T13:44:55;7.72;;;2.55;;
37203;SDS011;23098;48.054;10.636;2024-01-27T13:47:21;6.20;;;2.28;;
37203;SDS011;23098;48.054;10.636;2024-01-27T13:49:47;5.38;;;2.65;;
37203;SDS011;23098;48.054;10.636;2024-01-27T13:52:13;6.20;;;2.45;;
37203;SDS011;23098;48.054;10.636;2024-01-27T13:54:39;6.47;;;2.13;;
37203;SDS011;23098;48.054;10.636;2024-01-27T13:57:04;5.47;;;2.25;;
37203;SDS011;23098;48.054;10.636;2024-01-27T13:59:30;11.32;;;2.45;;
37203;SDS011;23098;48.054;10.636;2024-01-27T14:01:57;4.63;;;2.30;;
37203;SDS011;23098;48.054;10.636;2024-01-27T14:04:23;8.85;;;2.65;;
37203;SDS011;23098;48.054;10.636;2024-01-27T14:06:52;5.68;;;2.40;;
37203;SDS011;23098;48.054;10.636;2024-01-27T14:09:18;7.70;;;2.42;;
37203;SDS011;23098;48.054;10.636;2024-01-27T14:11:48;6.65;;;2.78;;
37203;SDS011;23098;48.054;10.636;2024-01-27T14:14:14;8.02;;;2.70;;
37203;SDS011;23098;48.054;10.636;2024-01-27T14:16:39;11.30;;;3.13;;
37203;SDS011;23098;48.054;10.636;2024-01-27T14:19:07;5.90;;;2.55;;
37203;SDS011;23098;48.054;10.636;2024-01-27T14:21:32;8.27;;;2.50;;
37203;SDS011;23098;48.054;10.636;2024-01-27T14:23:58;5.35;;;2.70;;
37203;SDS011;23098;48.054;10.636;2024-01-27T14:28:56;6.60;;;2.53;;
37203;SDS011;23098;48.054;10.636;2024-01-27T14:31:22;12.52;;;3.83;;
37203;SDS011;23098;48.054;10.636;2024-01-27T14:33:48;6.20;;;2.88;;
37203;SDS011;23098;48.054;10.636;2024-01-27T14:36:14;5.20;;;2.60;;
37203;SDS011;23098;48.054;10.636;2024-01-27T14:38:40;6.20;;;2.40;;
37203;SDS011;23098;48.054;10.636;2024-01-27T14:41:06;5.38;;;2.95;;